METAR Data
IDs: Format: Raw Decoded Include TAF

Data at: 1113 UTC 25 Oct 2020

KECP 251056Z 00000KT 3SM R16/3500V4500FT BR OVC006 19/18 A2990 RMK AO2 T01890183 $